createdAt,value
2018-08-20T00:00:45.027Z,7.60
2018-08-20T00:02:49.168Z,7.97
2018-08-20T00:04:53.268Z,8.50
2018-08-20T00:06:59.263Z,8.70
2018-08-20T00:09:04.008Z,8.23
2018-08-20T00:11:07.964Z,8.23
2018-08-20T00:13:11.857Z,7.77
2018-08-20T00:15:17.103Z,7.87
2018-08-20T00:17:22.125Z,7.80
2018-08-20T00:19:27.444Z,8.13
2018-08-20T00:21:32.705Z,7.57
2018-08-20T00:23:36.524Z,7.57
2018-08-20T00:25:43.097Z,8.10
2018-08-20T00:27:48.134Z,8.10
2018-08-20T00:29:51.990Z,8.03
2018-08-20T00:31:56.817Z,7.87
2018-08-20T00:34:00.732Z,8.83
2018-08-20T00:36:04.656Z,8.73
2018-08-20T00:38:08.671Z,8.20
2018-08-20T00:40:12.913Z,7.87
2018-08-20T00:42:16.802Z,8.43
2018-08-20T00:44:22.906Z,8.63
2018-08-20T00:46:27.068Z,8.80
2018-08-20T00:48:31.005Z,8.67
2018-08-20T00:50:36.748Z,8.10
2018-08-20T00:52:43.232Z,8.53
2018-08-20T00:54:47.216Z,8.10
2018-08-20T00:56:51.686Z,8.60
2018-08-20T00:58:55.915Z,8.17
2018-08-20T01:01:06.835Z,8.60
2018-08-20T01:03:10.637Z,8.17
2018-08-20T01:05:14.448Z,8.37
2018-08-20T01:07:18.427Z,9.10
2018-08-20T01:09:22.371Z,8.03
2018-08-20T01:11:26.251Z,8.70
2018-08-20T01:13:30.147Z,8.53
2018-08-20T01:15:34.469Z,8.43
2018-08-20T01:17:38.603Z,8.33
2018-08-20T01:19:42.390Z,8.17
2018-08-20T01:21:46.191Z,8.13
2018-08-20T01:23:50.620Z,8.00
2018-08-20T01:26:00.398Z,9.33
2018-08-20T01:28:04.280Z,7.77
2018-08-20T01:30:08.168Z,8.00
2018-08-20T01:32:12.109Z,8.00
2018-08-20T01:34:16.003Z,8.70
2018-08-20T01:36:19.873Z,8.17
2018-08-20T01:38:23.784Z,9.43
2018-08-20T01:40:28.260Z,8.37
2018-08-20T01:42:35.384Z,8.27
2018-08-20T01:44:39.336Z,7.87
2018-08-20T01:46:43.322Z,8.20
2018-08-20T01:48:47.915Z,8.70
2018-08-20T01:50:52.566Z,8.67
2018-08-20T01:52:57.535Z,8.80
2018-08-20T01:55:06.538Z,8.30
2018-08-20T01:57:11.462Z,8.67
2018-08-20T01:59:16.604Z,8.70
2018-08-20T02:01:23.144Z,8.87
2018-08-20T02:03:29.176Z,9.13
2018-08-20T02:05:35.935Z,8.70
2018-08-20T02:07:39.822Z,9.47
2018-08-20T02:09:48.302Z,9.07
2018-08-20T02:11:52.808Z,8.03
2018-08-20T02:16:18.619Z,8.23
2018-08-20T02:18:24.008Z,8.57
2018-08-20T02:20:28.374Z,8.40
2018-08-20T02:22:34.345Z,9.50
2018-08-20T02:24:39.961Z,9.07
2018-08-20T02:26:51.702Z,8.43
2018-08-20T02:28:55.964Z,8.30
2018-08-20T02:31:00.934Z,9.00
2018-08-20T02:35:38.688Z,8.33
2018-08-20T02:37:45.847Z,9.10
2018-08-20T02:39:50.722Z,9.30
2018-08-20T02:41:57.029Z,8.63
2018-08-20T02:44:01.509Z,8.57
2018-08-20T02:46:06.468Z,8.93
2018-08-20T02:48:25.136Z,8.63
2018-08-20T02:50:28.990Z,8.93
2018-08-20T02:57:44.818Z,8.23
2018-08-20T02:59:48.819Z,8.57
2018-08-20T03:01:52.767Z,8.60
2018-08-20T03:03:56.691Z,8.80
2018-08-20T03:06:00.581Z,8.90
2018-08-20T03:08:04.912Z,9.60
2018-08-20T03:10:10.974Z,8.80
2018-08-20T03:12:15.518Z,9.23
2018-08-20T03:14:19.609Z,8.83
2018-08-20T03:16:23.910Z,8.60
2018-08-20T03:18:27.811Z,9.17
2018-08-20T03:20:32.239Z,8.80
2018-08-20T03:22:38.139Z,8.97
2018-08-20T03:24:43.739Z,8.80
2018-08-20T03:26:47.764Z,9.57
2018-08-20T03:28:51.845Z,8.53
2018-08-20T03:31:02.616Z,9.03
2018-08-20T03:33:07.508Z,9.27
2018-08-20T03:35:21.017Z,8.73
2018-08-20T03:37:26.530Z,9.20
2018-08-20T03:39:32.026Z,8.27
2018-08-20T03:41:35.927Z,9.30
2018-08-20T03:43:39.810Z,9.50
2018-08-20T03:45:43.713Z,9.40
2018-08-20T03:47:47.689Z,9.03
2018-08-20T03:49:51.820Z,8.87
2018-08-20T03:51:55.703Z,9.10
2018-08-20T03:54:00.011Z,9.23
2018-08-20T03:56:06.068Z,9.50
2018-08-20T03:58:09.916Z,9.60
2018-08-20T04:00:23.360Z,8.97
2018-08-20T04:02:27.277Z,9.13
2018-08-20T04:04:31.667Z,9.47
2018-08-20T04:06:40.736Z,9.43
2018-08-20T04:08:44.747Z,9.50
2018-08-20T04:10:48.770Z,9.17
2018-08-20T04:12:54.481Z,9.53
2018-08-20T04:15:00.512Z,8.87
2018-08-20T04:17:04.721Z,9.50
2018-08-20T04:19:09.346Z,9.47
2018-08-20T04:21:15.339Z,9.23
2018-08-20T04:23:19.634Z,9.17
2018-08-20T04:25:39.997Z,9.50
2018-08-20T04:29:56.695Z,9.50
2018-08-20T04:32:07.371Z,9.80
2018-08-20T04:34:11.514Z,9.87
2018-08-20T04:36:16.925Z,10.07
2018-08-20T04:38:23.363Z,10.00
2018-08-20T04:40:29.100Z,9.70
2018-08-20T04:42:33.565Z,9.03
2018-08-20T04:44:39.148Z,9.77
2018-08-20T04:46:46.720Z,10.73
2018-08-20T04:48:50.867Z,9.50
2018-08-20T04:50:57.365Z,10.50
2018-08-20T04:53:04.270Z,10.53
2018-08-20T04:55:14.470Z,8.90
2018-08-20T04:57:22.667Z,9.60
2018-08-20T04:59:30.554Z,9.90
2018-08-20T05:01:42.326Z,10.53
2018-08-20T05:03:48.492Z,9.47
2018-08-20T05:05:55.877Z,10.03
2018-08-20T05:08:03.011Z,9.70
2018-08-20T05:10:13.233Z,9.53
2018-08-20T05:12:18.543Z,10.03
2018-08-20T05:14:25.048Z,9.43
2018-08-20T05:16:33.381Z,9.60
2018-08-20T05:18:38.797Z,9.70
2018-08-20T05:20:48.297Z,9.67
2018-08-20T05:22:55.338Z,9.83
2018-08-20T05:25:01.822Z,10.30
2018-08-20T05:27:08.775Z,9.80
2018-08-20T05:29:26.839Z,10.13
2018-08-20T05:31:35.008Z,10.40
2018-08-20T05:33:41.392Z,10.10
2018-08-20T05:35:47.901Z,9.87
2018-08-20T05:37:54.824Z,10.07
2018-08-20T05:40:00.289Z,11.17
2018-08-20T05:42:06.070Z,9.37
2018-08-20T05:44:12.273Z,10.43
2018-08-20T05:46:20.043Z,9.60
2018-08-20T05:48:25.707Z,11.13
2018-08-20T05:50:36.368Z,10.23
2018-08-20T05:52:42.330Z,10.50
2018-08-20T05:54:49.767Z,10.30
2018-08-20T05:56:56.425Z,9.90
2018-08-20T05:59:05.196Z,9.73
2018-08-20T06:01:16.193Z,10.27
2018-08-20T06:03:26.912Z,10.53
2018-08-20T06:05:34.737Z,10.07
2018-08-20T06:07:51.135Z,10.23
2018-08-20T06:09:59.177Z,10.13
2018-08-20T06:12:03.879Z,10.77
2018-08-20T06:14:09.190Z,10.13
2018-08-20T06:16:16.786Z,9.93
2018-08-20T06:18:22.791Z,10.20
2018-08-20T06:20:27.664Z,9.83
2018-08-20T06:22:35.889Z,10.47
2018-08-20T06:24:41.121Z,9.80
2018-08-20T06:26:46.174Z,10.65
2018-08-20T06:28:57.776Z,10.90
2018-08-20T06:31:04.838Z,10.80
2018-08-20T06:33:10.175Z,10.60
2018-08-20T06:35:18.197Z,10.00
2018-08-20T06:37:25.148Z,10.30
2018-08-20T06:39:29.825Z,10.37
2018-08-20T06:41:34.082Z,10.10
2018-08-20T06:43:38.757Z,10.43
2018-08-20T06:45:43.208Z,10.33
2018-08-20T06:48:02.742Z,11.23
2018-08-20T06:50:17.175Z,11.13
2018-08-20T06:52:21.897Z,10.63
2018-08-20T06:54:29.689Z,10.87
2018-08-20T06:56:35.298Z,9.93
2018-08-20T06:58:42.098Z,10.17
2018-08-20T07:00:51.158Z,9.20
2018-08-20T07:03:03.922Z,9.43
2018-08-20T07:05:09.604Z,9.10
2018-08-20T07:07:16.041Z,9.77
2018-08-20T07:09:22.636Z,8.97
2018-08-20T07:11:28.909Z,9.30
2018-08-20T07:13:39.494Z,9.37
2018-08-20T07:15:45.791Z,9.97
2018-08-20T07:17:57.866Z,9.30
2018-08-20T07:20:03.031Z,9.20
2018-08-20T07:22:10.360Z,8.57
2018-08-20T07:24:18.734Z,8.77
2018-08-20T07:26:25.601Z,9.30
2018-08-20T07:28:32.026Z,8.68
2018-08-20T07:30:40.470Z,8.48
2018-08-20T07:32:47.264Z,9.43
2018-08-20T07:34:54.022Z,9.48
2018-08-20T07:36:59.359Z,8.58
2018-08-20T07:39:06.991Z,9.13
2018-08-20T07:41:13.066Z,9.38
2018-08-20T07:43:19.529Z,9.90
2018-08-20T07:45:30.608Z,9.38
2018-08-20T07:47:42.052Z,8.90
2018-08-20T07:49:47.789Z,9.20
2018-08-20T07:51:57.417Z,9.53
2018-08-20T07:54:03.248Z,9.80
2018-08-20T07:56:09.433Z,8.70
2018-08-20T07:58:17.007Z,9.68
2018-08-20T08:00:25.180Z,9.60
2018-08-20T08:02:30.270Z,9.58
2018-08-20T08:04:35.234Z,8.98
2018-08-20T08:06:43.962Z,9.70
2018-08-20T08:08:54.325Z,9.45
2018-08-20T08:11:01.680Z,9.90
2018-08-20T08:13:13.447Z,10.20
2018-08-20T08:15:23.332Z,9.98
2018-08-20T08:17:30.152Z,10.32
2018-08-20T08:19:34.346Z,10.95
2018-08-20T08:21:45.013Z,10.40
2018-08-20T08:23:49.230Z,11.08
2018-08-20T08:25:54.118Z,10.82
2018-08-20T08:27:58.180Z,10.28
2018-08-20T08:30:05.908Z,10.03
2018-08-20T08:32:10.474Z,10.63
2018-08-20T08:34:15.281Z,11.08
2018-08-20T08:36:19.650Z,11.08
2018-08-20T08:38:26.508Z,12.25
2018-08-20T08:40:32.475Z,10.80
2018-08-20T08:42:38.598Z,10.53
2018-08-20T08:44:43.934Z,11.12
2018-08-20T08:46:48.581Z,11.48
2018-08-20T08:48:56.803Z,11.63
2018-08-20T08:51:01.599Z,11.12
2018-08-20T08:53:11.014Z,11.07
2018-08-20T08:55:16.497Z,10.70
2018-08-20T08:57:21.627Z,10.60
2018-08-20T08:59:26.272Z,11.38
2018-08-20T09:01:31.853Z,10.72
2018-08-20T09:03:38.136Z,18.82
2018-08-20T09:05:49.195Z,10.70
2018-08-20T09:07:58.511Z,11.53
2018-08-20T09:10:03.268Z,10.43
2018-08-20T09:12:09.483Z,9.63
2018-08-20T09:14:17.584Z,10.38
2018-08-20T09:16:22.751Z,11.68
2018-08-20T09:18:28.133Z,10.58
2018-08-20T09:20:36.397Z,10.95
2018-08-20T09:22:42.535Z,10.72
2018-08-20T09:24:47.540Z,11.28
2018-08-20T09:26:53.158Z,10.63
2018-08-20T09:28:57.832Z,11.65
2018-08-20T09:31:03.187Z,10.30
2018-08-20T09:33:09.106Z,10.63
2018-08-20T09:35:18.421Z,9.88
2018-08-20T09:37:24.357Z,9.30
2018-08-20T09:39:32.226Z,8.95
2018-08-20T09:41:38.369Z,8.23
2018-08-20T09:43:45.986Z,9.18
2018-08-20T09:45:51.863Z,9.60
2018-08-20T09:47:59.074Z,8.70
2018-08-20T09:50:03.818Z,9.05
2018-08-20T09:52:13.063Z,10.23
2018-08-20T09:54:20.696Z,9.60
2018-08-20T09:56:29.528Z,8.30
2018-08-20T09:58:34.020Z,8.35
2018-08-20T10:00:39.918Z,8.63
2018-08-20T10:02:47.481Z,8.88
2018-08-20T10:04:53.877Z,7.90
2018-08-20T10:06:59.570Z,8.90
2018-08-20T10:09:04.770Z,8.33
2018-08-20T10:11:16.034Z,8.88
2018-08-20T10:13:25.945Z,9.08
2018-08-20T10:15:32.236Z,7.80
2018-08-20T10:17:38.839Z,7.47
2018-08-20T10:19:48.560Z,7.35
2018-08-20T10:27:03.116Z,6.72
2018-08-20T10:29:07.096Z,6.87
2018-08-20T10:31:12.045Z,6.60
2018-08-20T10:33:19.270Z,6.08
2018-08-20T10:35:26.436Z,5.33
2018-08-20T10:37:34.082Z,4.58
2018-08-20T10:39:43.106Z,4.75
2018-08-20T10:41:51.415Z,3.87
2018-08-20T10:44:01.659Z,4.10
2018-08-20T10:46:11.927Z,3.87
2018-08-20T10:48:18.072Z,3.65
2018-08-20T10:50:32.765Z,4.40
2018-08-20T10:52:38.271Z,4.30
2018-08-20T10:54:45.074Z,3.60
2018-08-20T10:56:49.558Z,4.35
2018-08-20T10:58:53.806Z,4.03
2018-08-20T11:00:59.429Z,4.00
2018-08-20T11:03:03.816Z,4.25
2018-08-20T11:05:13.180Z,4.22
2018-08-20T11:12:39.539Z,4.17
2018-08-20T11:14:45.313Z,3.67
2018-08-20T11:16:49.392Z,4.05
2018-08-20T11:18:58.758Z,3.42
2018-08-20T11:21:05.957Z,3.22
2018-08-20T11:23:10.043Z,3.37
2018-08-20T11:25:15.418Z,3.60
2018-08-20T11:27:22.173Z,4.33
2018-08-20T11:31:35.577Z,4.12
2018-08-20T11:33:42.468Z,4.00
2018-08-20T11:35:46.768Z,4.17
2018-08-20T11:37:51.089Z,4.08
2018-08-20T11:39:57.358Z,4.33
2018-08-20T11:42:02.374Z,3.67
2018-08-20T11:44:11.849Z,4.00
2018-08-20T11:46:20.635Z,4.03
2018-08-20T11:48:24.716Z,4.30
2018-08-20T11:50:31.224Z,4.97
2018-08-20T11:52:36.332Z,4.55
2018-08-20T11:54:45.129Z,4.30
2018-08-20T11:56:53.758Z,4.65
2018-08-20T11:59:03.611Z,4.50
2018-08-20T12:01:27.334Z,4.80
2018-08-20T12:03:34.319Z,4.87
2018-08-20T12:05:40.597Z,4.50
2018-08-20T12:07:46.556Z,3.35
2018-08-20T12:09:51.393Z,4.40
2018-08-20T12:11:56.680Z,4.20
2018-08-20T12:14:02.518Z,3.45
2018-08-20T12:16:07.785Z,4.08
2018-08-20T12:18:13.191Z,3.85
2018-08-20T12:20:20.126Z,3.47
2018-08-20T12:22:27.639Z,3.77
2018-08-20T12:24:33.043Z,3.70
2018-08-20T12:26:37.347Z,3.87
2018-08-20T12:28:41.383Z,4.70
2018-08-20T12:30:46.723Z,4.65
2018-08-20T12:32:50.698Z,4.37
2018-08-20T12:34:54.611Z,3.92
2018-08-20T12:37:01.818Z,4.60
2018-08-20T12:39:10.384Z,4.33
2018-08-20T12:41:20.765Z,5.10
2018-08-20T12:43:34.644Z,4.35
2018-08-20T12:45:39.275Z,4.20
2018-08-20T12:47:44.040Z,4.60
2018-08-20T12:49:49.355Z,4.60
2018-08-20T12:51:54.138Z,4.30
2018-08-20T12:54:00.303Z,4.30
2018-08-20T12:56:05.620Z,4.58
2018-08-20T12:58:11.344Z,4.37
2018-08-20T13:00:15.376Z,4.10
2018-08-20T13:02:19.900Z,4.15
2018-08-20T13:04:27.690Z,4.20
2018-08-20T13:06:31.699Z,4.67
2018-08-20T13:08:38.426Z,5.22
2018-08-20T13:10:43.946Z,4.47
2018-08-20T13:12:49.463Z,3.83
2018-08-20T13:14:54.649Z,3.83
2018-08-20T13:16:59.504Z,3.92
2018-08-20T13:19:04.733Z,3.90
2018-08-20T13:21:13.574Z,3.60
2018-08-20T13:23:18.565Z,3.92
2018-08-20T13:25:22.984Z,3.70
2018-08-20T13:27:32.636Z,3.15
2018-08-20T13:29:36.499Z,3.25
2018-08-20T13:31:40.467Z,3.27
2018-08-20T13:33:44.753Z,3.27
2018-08-20T13:35:50.272Z,3.45
2018-08-20T13:42:12.049Z,3.20
2018-08-20T13:44:16.875Z,3.92
2018-08-20T13:46:21.422Z,3.62
2018-08-20T13:48:25.719Z,3.90
2018-08-20T13:50:30.347Z,3.62
2018-08-20T13:52:34.904Z,3.77
2018-08-20T13:54:40.593Z,4.50
2018-08-20T13:56:49.512Z,3.75
2018-08-20T13:58:53.433Z,3.58
2018-08-20T14:00:59.513Z,3.35
2018-08-20T14:03:03.439Z,3.30
2018-08-20T14:05:09.379Z,3.72
2018-08-20T14:07:17.463Z,3.47
2018-08-20T14:09:23.201Z,3.50
2018-08-20T14:11:34.188Z,3.27
2018-08-20T14:13:40.701Z,3.72
2018-08-20T14:15:45.789Z,3.20
2018-08-20T14:17:52.544Z,2.87
2018-08-20T14:19:58.084Z,3.10
2018-08-20T14:22:02.036Z,2.80
2018-08-20T14:24:06.036Z,2.83
2018-08-20T14:26:10.281Z,3.02
2018-08-20T14:28:15.266Z,3.10
2018-08-20T14:30:23.318Z,3.00
2018-08-20T14:32:28.697Z,3.35
2018-08-20T14:34:32.657Z,2.85
2018-08-20T14:36:36.796Z,3.05
2018-08-20T14:38:41.106Z,3.20
2018-08-20T14:40:45.005Z,3.08
2018-08-20T14:42:48.964Z,3.47
2018-08-20T14:44:54.772Z,3.62
2018-08-20T14:47:00.364Z,3.55
2018-08-20T14:49:07.046Z,3.40
2018-08-20T14:51:11.990Z,3.40
2018-08-20T14:53:15.906Z,3.50
2018-08-20T14:55:32.704Z,3.52
2018-08-20T14:57:37.124Z,3.58
2018-08-20T14:59:42.691Z,3.83
2018-08-20T15:01:46.822Z,3.92
2018-08-20T15:03:51.343Z,4.15
2018-08-20T15:05:55.244Z,4.15
2018-08-20T15:08:02.712Z,3.40
2018-08-20T15:10:07.913Z,4.00
2018-08-20T15:12:11.839Z,4.53
2018-08-20T15:14:16.799Z,3.83
2018-08-20T15:16:24.288Z,4.05
2018-08-20T15:18:28.942Z,3.72
2018-08-20T15:20:33.572Z,3.60
2018-08-20T15:22:38.653Z,3.65
2018-08-20T15:24:42.556Z,4.08
2018-08-20T15:26:49.586Z,3.65
2018-08-20T15:28:53.782Z,3.95
2018-08-20T15:30:58.243Z,3.67
2018-08-20T15:33:06.229Z,3.72
2018-08-20T15:35:12.518Z,3.98
2018-08-20T15:37:16.463Z,3.52
2018-08-20T15:39:22.854Z,3.67
2018-08-20T15:41:26.900Z,3.58
2018-08-20T15:43:31.360Z,4.08
2018-08-20T15:45:37.282Z,3.65
2018-08-20T15:47:45.489Z,3.95
2018-08-20T15:49:49.638Z,3.75
2018-08-20T15:51:55.739Z,4.20
2018-08-20T15:54:02.888Z,3.50
2018-08-20T15:56:10.007Z,3.47
2018-08-20T15:58:14.712Z,3.70
2018-08-20T16:00:22.614Z,3.50
2018-08-20T16:02:31.139Z,3.20
2018-08-20T16:04:35.848Z,3.45
2018-08-20T16:06:41.228Z,3.42
2018-08-20T16:08:47.236Z,3.17
2018-08-20T16:10:54.115Z,2.87
2018-08-20T16:13:00.943Z,2.87
2018-08-20T16:15:06.290Z,3.25
2018-08-20T16:17:10.279Z,2.70
2018-08-20T16:19:21.210Z,3.20
2018-08-20T16:21:32.437Z,3.00
2018-08-20T16:23:44.660Z,2.85
2018-08-20T16:25:50.941Z,2.80
2018-08-20T16:27:55.834Z,3.08
2018-08-20T16:30:00.026Z,2.90
2018-08-20T16:32:04.768Z,2.90
2018-08-20T16:34:10.108Z,3.20
2018-08-20T16:36:18.544Z,3.35
2018-08-20T16:38:23.788Z,3.30
2018-08-20T16:40:30.879Z,3.40
2018-08-20T16:42:39.827Z,3.30
2018-08-20T16:44:49.059Z,3.50
2018-08-20T16:46:58.719Z,4.17
2018-08-20T16:49:09.720Z,4.67
2018-08-20T16:53:33.508Z,3.87
2018-08-20T16:55:46.696Z,4.00
2018-08-20T16:58:01.680Z,3.70
2018-08-20T17:00:26.479Z,3.65
2018-08-20T17:02:35.748Z,3.17
2018-08-20T17:04:44.761Z,3.40
2018-08-20T17:06:52.182Z,2.95
2018-08-20T17:09:01.732Z,3.25
2018-08-20T17:11:27.381Z,3.05
2018-08-20T17:13:35.146Z,2.80
2018-08-20T17:15:49.336Z,2.65
2018-08-20T17:17:56.376Z,2.80
2018-08-20T17:20:04.213Z,2.77
2018-08-20T17:22:11.513Z,2.70
2018-08-20T17:24:29.298Z,2.83
2018-08-20T17:26:35.625Z,2.70
2018-08-20T17:28:42.451Z,2.70
2018-08-20T17:30:52.368Z,2.58
2018-08-20T17:32:56.402Z,2.58
2018-08-20T17:35:03.948Z,2.67
2018-08-20T17:37:10.299Z,2.70
2018-08-20T17:39:17.924Z,2.80
2018-08-20T17:41:25.660Z,2.80
2018-08-20T17:43:30.908Z,2.83
2018-08-20T17:45:35.539Z,2.90
2018-08-20T17:47:41.339Z,2.85
2018-08-20T17:49:50.152Z,2.67
2018-08-20T17:51:56.745Z,2.70
2018-08-20T17:54:02.092Z,2.90
2018-08-20T17:56:09.479Z,2.85
2018-08-20T17:58:20.920Z,2.67
2018-08-20T18:00:33.592Z,3.10
2018-08-20T18:02:39.707Z,2.87
2018-08-20T18:04:46.683Z,3.10
2018-08-20T18:06:57.664Z,2.90
2018-08-20T18:09:04.417Z,3.33
2018-08-20T18:11:13.852Z,3.47
2018-08-20T18:14:01.637Z,3.50
2018-08-20T18:16:09.237Z,2.98
2018-08-20T18:18:16.078Z,3.70
2018-08-20T18:20:21.642Z,3.57
2018-08-20T18:22:26.377Z,3.67
2018-08-20T18:24:31.687Z,3.77
2018-08-20T18:26:42.744Z,3.70
2018-08-20T18:28:51.824Z,3.23
2018-08-20T18:31:05.666Z,3.70
2018-08-20T18:33:14.408Z,3.27
2018-08-20T18:35:26.457Z,3.70
2018-08-20T18:37:35.878Z,3.57
2018-08-20T18:39:53.301Z,3.73
2018-08-20T18:42:06.635Z,4.07
2018-08-20T18:44:10.794Z,4.20
2018-08-20T18:46:16.372Z,3.97
2018-08-20T18:48:25.443Z,4.50
2018-08-20T18:50:30.724Z,4.57
2018-08-20T18:52:37.549Z,4.23
2018-08-20T18:54:45.248Z,4.37
2018-08-20T18:56:54.309Z,4.43
2018-08-20T18:58:59.839Z,4.57
2018-08-20T19:01:04.696Z,4.47
2018-08-20T19:03:10.882Z,4.03
2018-08-20T19:05:19.845Z,4.60
2018-08-20T19:07:29.255Z,4.67
2018-08-20T19:09:34.282Z,4.63
2018-08-20T19:11:40.776Z,4.33
2018-08-20T19:13:46.218Z,4.67
2018-08-20T19:15:53.376Z,4.00
2018-08-20T19:18:01.326Z,4.30
2018-08-20T19:20:07.374Z,4.47
2018-08-20T19:22:21.393Z,4.50
2018-08-20T19:24:41.036Z,4.33
2018-08-20T19:26:46.364Z,3.70
2018-08-20T19:28:52.987Z,4.10
2018-08-20T19:31:03.688Z,3.97
2018-08-20T19:33:15.872Z,4.40
2018-08-20T19:35:22.172Z,4.23
2018-08-20T19:37:30.134Z,4.60
2018-08-20T19:39:36.688Z,4.03
2018-08-20T19:41:43.164Z,4.00
2018-08-20T19:44:00.338Z,4.40
2018-08-20T19:46:07.127Z,4.40
2018-08-20T19:48:18.090Z,4.60
2018-08-20T19:50:28.475Z,4.30
2018-08-20T19:52:34.239Z,4.47
2018-08-20T19:54:40.498Z,4.13
2018-08-20T19:56:50.241Z,4.37
2018-08-20T19:58:55.219Z,4.50
2018-08-20T20:01:10.988Z,4.40
2018-08-20T20:03:18.494Z,4.60
2018-08-20T20:05:27.192Z,4.50
2018-08-20T20:07:37.429Z,4.40
2018-08-20T20:09:43.911Z,4.30
2018-08-20T20:11:50.680Z,4.10
2018-08-20T20:14:03.858Z,4.10
2018-08-20T20:16:12.054Z,3.87
2018-08-20T20:18:21.401Z,4.83
2018-08-20T20:20:29.203Z,3.90
2018-08-20T20:22:41.854Z,3.80
2018-08-20T20:24:49.867Z,4.00
2018-08-20T20:26:57.441Z,3.63
2018-08-20T20:29:05.232Z,3.70
2018-08-20T20:31:12.374Z,3.33
2018-08-20T20:33:21.366Z,3.67
2018-08-20T20:35:27.969Z,3.37
2018-08-20T20:37:35.518Z,3.63
2018-08-20T20:39:52.692Z,4.13
2018-08-20T20:42:00.367Z,4.33
2018-08-20T20:44:11.338Z,3.73
2018-08-20T20:46:18.638Z,4.17
2018-08-20T20:48:27.533Z,4.07
2018-08-20T20:50:35.263Z,3.80
2018-08-20T20:52:42.400Z,3.83
2018-08-20T20:54:47.634Z,4.00
2018-08-20T20:56:54.443Z,4.47
2018-08-20T20:59:04.300Z,3.80
2018-08-20T21:01:16.372Z,4.50
2018-08-20T21:03:23.389Z,4.70
2018-08-20T21:05:31.518Z,3.80
2018-08-20T21:07:40.100Z,4.20
2018-08-20T21:09:49.376Z,4.70
2018-08-20T21:11:53.274Z,4.40
2018-08-20T21:13:58.626Z,4.13
2018-08-20T21:16:10.403Z,4.53
2018-08-20T21:18:16.251Z,4.70
2018-08-20T21:20:20.484Z,4.80
2018-08-20T21:22:28.801Z,5.10
2018-08-20T21:24:39.561Z,4.83
2018-08-20T21:26:45.637Z,4.80
2018-08-20T21:28:52.068Z,5.27
2018-08-20T21:30:58.309Z,5.23
2018-08-20T21:33:04.440Z,5.70
2018-08-20T21:35:10.264Z,5.87
2018-08-20T21:37:16.376Z,4.93
2018-08-20T21:39:22.305Z,5.67
2018-08-20T21:41:30.851Z,5.50
2018-08-20T21:43:46.906Z,5.73
2018-08-20T21:45:52.208Z,5.93
2018-08-20T21:47:58.344Z,6.03
2018-08-20T21:50:04.957Z,6.10
2018-08-20T21:52:09.824Z,5.37
2018-08-20T21:54:14.087Z,5.87
2018-08-20T21:56:20.300Z,5.50
2018-08-20T21:58:26.805Z,5.73
2018-08-20T22:00:33.989Z,5.50
2018-08-20T22:02:39.412Z,5.27
2018-08-20T22:04:43.448Z,5.10
2018-08-20T22:06:49.516Z,4.93
2018-08-20T22:08:56.512Z,4.90
2018-08-20T22:11:01.872Z,5.53
2018-08-20T22:13:05.855Z,4.90
2018-08-20T22:15:17.239Z,5.20
2018-08-20T22:17:27.908Z,5.53
2018-08-20T22:19:33.398Z,4.93
2018-08-20T22:21:39.443Z,4.90
2018-08-20T22:23:45.214Z,4.90
2018-08-20T22:25:55.863Z,5.10
2018-08-20T22:28:02.411Z,5.40
2018-08-20T22:30:09.651Z,5.60
2018-08-20T22:32:14.850Z,5.20
2018-08-20T22:34:20.427Z,5.23
2018-08-20T22:36:26.480Z,5.37
2018-08-20T22:38:40.007Z,5.80
2018-08-20T22:40:45.198Z,5.33
2018-08-20T22:43:00.123Z,5.47
2018-08-20T22:45:06.740Z,6.00
2018-08-20T22:47:15.544Z,6.20
2018-08-20T22:49:20.248Z,6.10
2018-08-20T22:51:27.617Z,5.97
2018-08-20T22:53:38.271Z,5.90
2018-08-20T22:55:56.417Z,5.97
2018-08-20T22:58:10.034Z,5.87
2018-08-20T23:00:30.281Z,6.70
2018-08-20T23:02:35.190Z,6.60
2018-08-20T23:04:39.135Z,7.30
2018-08-20T23:06:46.617Z,6.40
2018-08-20T23:08:52.340Z,6.70
2018-08-20T23:10:56.436Z,6.93
2018-08-20T23:13:02.419Z,7.60
2018-08-20T23:15:09.145Z,9.23
2018-08-20T23:17:13.421Z,7.83
2018-08-20T23:19:19.013Z,8.83
2018-08-20T23:21:23.953Z,8.73
2018-08-20T23:23:36.989Z,8.47
2018-08-20T23:25:43.455Z,8.40
2018-08-20T23:27:49.614Z,8.07
2018-08-20T23:29:53.577Z,8.83
2018-08-20T23:32:02.978Z,9.60
2018-08-20T23:34:14.822Z,10.70
2018-08-20T23:36:20.569Z,10.30
2018-08-20T23:38:27.886Z,9.80
2018-08-20T23:40:32.204Z,10.00
2018-08-20T23:42:36.188Z,9.77
2018-08-20T23:44:40.551Z,9.57
2018-08-20T23:46:46.328Z,11.03
2018-08-20T23:48:50.930Z,11.00
2018-08-20T23:51:04.586Z,9.73
2018-08-20T23:53:08.577Z,9.73
2018-08-20T23:55:12.610Z,10.17
2018-08-20T23:57:17.060Z,10.13
2018-08-20T23:59:21.277Z,9.37
